Time;durP1;ratioP1;P1;durP2;ratioP2;P2;SDS_P1;SDS_P2;PMS_P1;PMS_P2;Temp;Humidity;BMP_temperature;BMP_pressure;BME280_temperature;BME280_humidity;BME280_pressure;Samples;Min_cycle;Max_cycle;Signal;HPM_P1;HPM_P2
2022/07/01 00:00:31;;;;;;;5.28;1.33;;;22.50;77.60;;;;;;5046863;28;20170;-61
2022/07/01 00:02:57;;;;;;;9.65;1.70;;;22.50;77.60;;;;;;5064263;28;20124;-62
2022/07/01 00:05:22;;;;;;;5.80;1.25;;;22.50;77.70;;;;;;5062853;28;20094;-64
2022/07/01 00:07:48;;;;;;;4.57;1.65;;;22.40;77.70;;;;;;5062748;28;20441;-63
2022/07/01 00:10:14;;;;;;;4.25;1.20;;;22.40;77.80;;;;;;5048494;28;20036;-62
2022/07/01 00:12:39;;;;;;;2.65;1.17;;;22.40;77.80;;;;;;5047209;28;20033;-62
2022/07/01 00:15:05;;;;;;;6.00;1.30;;;22.40;77.90;;;;;;5028422;28;20036;-62
2022/07/01 00:17:31;;;;;;;2.83;1.38;;;22.40;78.10;;;;;;5062909;28;20076;-62
2022/07/01 00:19:56;;;;;;;6.25;1.38;;;22.30;78.10;;;;;;5061163;28;20072;-62
2022/07/01 00:22:22;;;;;;;5.18;1.35;;;22.30;78.10;;;;;;5046775;28;20464;-62
2022/07/01 00:24:48;;;;;;;2.78;1.10;;;22.30;78.10;;;;;;5066069;28;20471;-63
2022/07/01 00:27:14;;;;;;;2.53;1.17;;;22.30;78.10;;;;;;5064919;28;20027;-62
2022/07/01 00:29:40;;;;;;;2.70;1.15;;;22.30;78.20;;;;;;5029155;28;20025;-62
2022/07/01 00:32:06;;;;;;;3.60;0.93;;;22.20;78.20;;;;;;5012311;28;20444;-62
2022/07/01 00:34:31;;;;;;;4.10;1.08;;;22.20;78.20;;;;;;5063141;28;20120;-63
2022/07/01 00:36:57;;;;;;;2.00;1.02;;;22.20;78.30;;;;;;5046564;28;20038;-62
2022/07/01 00:39:22;;;;;;;6.57;1.33;;;22.20;78.40;;;;;;5063599;28;20074;-62
2022/07/01 00:41:48;;;;;;;6.85;1.20;;;22.10;78.30;;;;;;5044819;28;20028;-62
2022/07/01 00:44:20;;;;;;;3.20;1.10;;;22.10;78.40;;;;;;5044273;28;20139;-62
2022/07/01 00:46:46;;;;;;;2.05;1.13;;;22.10;78.50;;;;;;5044019;28;20040;-62
2022/07/01 00:49:12;;;;;;;8.27;1.17;;;22.10;78.60;;;;;;5027387;28;20031;-62
2022/07/01 00:51:37;;;;;;;4.40;0.93;;;22.00;78.60;;;;;;5047536;28;20601;-62
2022/07/01 00:54:03;;;;;;;2.35;0.88;;;22.00;78.60;;;;;;5063637;28;20025;-62
2022/07/01 00:56:28;;;;;;;7.88;1.20;;;22.00;78.60;;;;;;5062581;28;20471;-63
2022/07/01 00:58:55;;;;;;;3.78;0.90;;;22.00;78.60;;;;;;5045419;28;20047;-62
2022/07/01 01:01:22;;;;;;;4.40;1.38;;;22.00;78.70;;;;;;5063604;28;20032;-63
2022/07/01 01:03:48;;;;;;;5.28;0.90;;;22.00;78.80;;;;;;5044743;28;20127;-62
2022/07/01 01:06:13;;;;;;;5.55;1.05;;;21.90;78.80;;;;;;5064152;28;20061;-61
2022/07/01 01:08:39;;;;;;;1.60;0.80;;;21.90;78.80;;;;;;5028105;28;20447;-62
2022/07/01 01:11:04;;;;;;;2.75;0.75;;;21.90;78.90;;;;;;5046145;28;20021;-62
2022/07/01 01:13:30;;;;;;;1.95;0.63;;;21.90;78.90;;;;;;5027881;28;20488;-62
2022/07/01 01:15:55;;;;;;;3.45;0.90;;;21.90;78.90;;;;;;5064003;28;20056;-62
2022/07/01 01:18:21;;;;;;;2.45;1.00;;;21.90;78.90;;;;;;5044544;28;20032;-62
2022/07/01 01:20:46;;;;;;;2.28;0.70;;;21.90;78.90;;;;;;5044157;28;20357;-62
2022/07/01 01:23:12;;;;;;;2.33;0.80;;;21.90;78.90;;;;;;5062874;28;20526;-63
2022/07/01 01:25:37;;;;;;;2.60;0.77;;;21.80;79.00;;;;;;5028491;28;20035;-62
2022/07/01 01:28:03;;;;;;;1.13;0.57;;;21.80;79.00;;;;;;5064219;28;20063;-63
2022/07/01 01:30:28;;;;;;;1.38;0.70;;;21.80;79.10;;;;;;5029183;28;20162;-62
2022/07/01 01:32:54;;;;;;;1.63;0.80;;;21.80;79.10;;;;;;5062681;28;20334;-63
2022/07/01 01:35:20;;;;;;;2.00;0.70;;;21.80;79.20;;;;;;5060890;28;20044;-62
2022/07/01 01:37:46;;;;;;;2.58;0.80;;;21.70;79.20;;;;;;5028073;28;20029;-62
2022/07/01 01:40:13;;;;;;;3.85;0.70;;;21.70;79.20;;;;;;5045383;28;20076;-62
2022/07/01 01:42:39;;;;;;;1.75;0.80;;;21.70;79.20;;;;;;5030365;28;20534;-62
2022/07/01 01:45:06;;;;;;;3.72;0.73;;;21.70;79.30;;;;;;5063683;28;20036;-62
2022/07/01 01:47:31;;;;;;;2.53;0.70;;;21.70;79.30;;;;;;5061125;28;20020;-62
2022/07/01 01:49:57;;;;;;;3.72;1.02;;;21.70;79.40;;;;;;5026646;28;20488;-62
2022/07/01 01:52:22;;;;;;;3.75;0.70;;;21.60;79.40;;;;;;5062064;28;20040;-62
2022/07/01 01:54:48;;;;;;;1.67;0.88;;;21.60;79.40;;;;;;5064561;28;20034;-62
2022/07/01 01:57:14;;;;;;;2.00;0.68;;;21.70;79.50;;;;;;5063497;28;20486;-62
2022/07/01 01:59:39;;;;;;;3.17;0.50;;;21.60;79.50;;;;;;5062014;28;20777;-61
2022/07/01 02:02:05;;;;;;;0.95;0.60;;;21.60;79.50;;;;;;5042281;28;20039;-62
2022/07/01 02:04:31;;;;;;;2.95;0.70;;;21.50;79.50;;;;;;5060440;28;20036;-62
2022/07/01 02:06:56;;;;;;;3.10;0.80;;;21.50;79.50;;;;;;5027590;28;20087;-62
2022/07/01 02:09:22;;;;;;;1.42;0.85;;;21.50;79.50;;;;;;5064513;28;20507;-63
2022/07/01 02:11:47;;;;;;;1.77;0.50;;;21.40;79.50;;;;;;5044850;28;20040;-62
2022/07/01 02:14:13;;;;;;;3.30;0.68;;;21.50;79.50;;;;;;5043666;28;20736;-62
2022/07/01 02:16:38;;;;;;;0.55;0.52;;;21.50;79.40;;;;;;5043067;28;20036;-62
2022/07/01 02:19:04;;;;;;;2.78;0.63;;;21.50;79.40;;;;;;5060185;28;20024;-62
2022/07/01 02:21:29;;;;;;;2.40;0.50;;;21.50;79.50;;;;;;5063201;28;20037;-62
2022/07/01 02:23:55;;;;;;;1.80;0.52;;;21.50;79.50;;;;;;5044569;28;20036;-62
2022/07/01 02:26:21;;;;;;;1.05;0.57;;;21.40;79.50;;;;;;5043464;28;20044;-62
2022/07/01 02:28:46;;;;;;;1.38;0.73;;;21.40;79.50;;;;;;5043683;28;20067;-63
2022/07/01 02:31:12;;;;;;;2.47;0.60;;;21.40;79.50;;;;;;5061212;28;20089;-63
2022/07/01 02:33:37;;;;;;;3.53;0.45;;;21.70;79.70;;;;;;5043078;28;20139;-62
2022/07/01 02:36:03;;;;;;;0.95;0.55;;;21.40;79.60;;;;;;5028175;28;20074;-62
2022/07/01 02:38:29;;;;;;;1.05;0.80;;;21.40;79.60;;;;;;5043715;28;20538;-63
2022/07/01 02:40:54;;;;;;;1.13;0.77;;;21.30;79.60;;;;;;5042771;28;20044;-62
2022/07/01 02:43:20;;;;;;;1.35;0.40;;;21.30;79.50;;;;;;5061597;28;20024;-62
2022/07/01 02:45:45;;;;;;;3.67;0.50;;;21.30;79.60;;;;;;5062229;28;20082;-63
2022/07/01 02:48:11;;;;;;;1.08;0.75;;;21.30;79.50;;;;;;5061674;28;20039;-63
2022/07/01 02:50:36;;;;;;;0.47;0.30;;;21.20;79.60;;;;;;5061101;28;20396;-63
2022/07/01 02:53:02;;;;;;;1.10;0.50;;;21.20;79.60;;;;;;5024798;28;20053;-63
2022/07/01 02:55:29;;;;;;;0.50;0.40;;;21.10;79.60;;;;;;5061421;28;20051;-62
2022/07/01 02:57:54;;;;;;;0.75;0.40;;;21.10;79.50;;;;;;5027076;28;20033;-63
2022/07/01 03:00:20;;;;;;;2.35;0.50;;;21.10;79.50;;;;;;5028488;28;20086;-63
2022/07/01 03:02:46;;;;;;;0.68;0.55;;;21.10;80.30;;;;;;5027148;28;20025;-64
2022/07/01 03:05:11;;;;;;;0.25;0.25;;;21.00;79.50;;;;;;5041418;28;20033;-62
2022/07/01 03:07:38;;;;;;;1.27;0.60;;;21.00;79.70;;;;;;5041206;28;20041;-63
2022/07/01 03:10:04;;;;;;;5.03;0.85;;;20.90;79.70;;;;;;5026743;28;20021;-62
2022/07/01 03:12:32;;;;;;;1.27;0.50;;;20.90;79.80;;;;;;5044457;28;20037;-63
2022/07/01 03:14:59;;;;;;;0.90;0.60;;;20.90;79.90;;;;;;5061427;28;20120;-63
2022/07/01 03:17:28;;;;;;;0.82;0.60;;;20.80;79.90;;;;;;5046661;28;20033;-62
2022/07/01 03:19:54;;;;;;;3.45;0.63;;;20.80;80.00;;;;;;5041020;28;20041;-63
2022/07/01 03:22:22;;;;;;;0.77;0.45;;;20.80;79.90;;;;;;5029025;28;20488;-64
2022/07/01 03:24:48;;;;;;;3.50;0.95;;;20.80;79.90;;;;;;5009128;28;20127;-63
2022/07/01 03:27:14;;;;;;;1.70;0.82;;;20.80;79.90;;;;;;5008716;28;20100;-63
2022/07/01 03:29:40;;;;;;;1.83;0.82;;;20.80;80.00;;;;;;5041398;28;20643;-63
2022/07/01 03:32:06;;;;;;;1.30;0.80;;;20.80;80.00;;;;;;5028062;28;20485;-62
2022/07/01 03:34:31;;;;;;;0.93;0.70;;;20.70;80.00;;;;;;5005317;28;20032;-62
2022/07/01 03:36:57;;;;;;;2.33;0.82;;;20.70;80.00;;;;;;5024553;28;20492;-62
2022/07/01 03:39:22;;;;;;;2.83;0.55;;;20.70;80.10;;;;;;5015727;28;20389;-63
2022/07/01 03:41:48;;;;;;;1.20;0.65;;;20.70;80.10;;;;;;5030247;28;20033;-63
2022/07/01 03:44:13;;;;;;;0.85;0.70;;;20.60;80.00;;;;;;5041766;28;20033;-62
2022/07/01 03:46:39;;;;;;;4.70;0.95;;;20.70;80.20;;;;;;5041075;28;20384;-63
2022/07/01 03:49:04;;;;;;;4.55;1.15;;;20.60;80.20;;;;;;5023228;28;20031;-62
2022/07/01 03:51:30;;;;;;;1.80;0.90;;;20.60;80.30;;;;;;5042446;28;20041;-63
2022/07/01 03:56:39;;;;;;;8.50;0.90;;;20.60;80.30;;;;;;5041038;28;20106;-63
2022/07/01 03:59:05;;;;;;;4.32;0.82;;;20.50;80.40;;;;;;5022928;28;20106;-63
2022/07/01 04:01:31;;;;;;;5.53;0.80;;;20.50;80.40;;;;;;5041328;28;20304;-62
2022/07/01 04:03:56;;;;;;;5.85;1.10;;;20.50;80.40;;;;;;5041626;28;20459;-61
2022/07/01 04:06:22;;;;;;;3.70;0.70;;;20.50;80.40;;;;;;5041617;28;20041;-63
2022/07/01 04:08:47;;;;;;;1.63;0.68;;;20.50;80.40;;;;;;5021822;28;20561;-62
2022/07/01 04:11:13;;;;;;;1.13;0.70;;;20.50;80.40;;;;;;5048367;28;20111;-63
2022/07/01 04:13:38;;;;;;;2.22;0.85;;;20.50;80.30;;;;;;5032038;28;20032;-62
2022/07/01 04:16:04;;;;;;;2.97;0.50;;;20.50;80.40;;;;;;5034095;28;20037;-62
2022/07/01 04:18:30;;;;;;;3.58;0.95;;;20.40;80.40;;;;;;5026025;28;20097;-62
2022/07/01 04:23:40;;;;;;;1.27;0.80;;;20.40;80.30;;;;;;5031068;28;20039;-61
2022/07/01 04:26:05;;;;;;;4.22;1.10;;;20.40;80.40;;;;;;5045905;28;20033;-63
2022/07/01 04:28:31;;;;;;;3.22;1.00;;;20.40;80.50;;;;;;5064422;28;20059;-63
2022/07/01 04:30:56;;;;;;;1.75;0.98;;;20.40;80.50;;;;;;5065041;28;20476;-62
2022/07/01 04:33:22;;;;;;;3.35;1.00;;;20.30;80.50;;;;;;5064132;28;20535;-62
2022/07/01 04:35:47;;;;;;;2.53;0.98;;;20.30;80.50;;;;;;5042031;28;20037;-61
2022/07/01 04:38:13;;;;;;;27.33;4.07;;;20.30;80.50;;;;;;5059099;28;20080;-61
2022/07/01 04:40:38;;;;;;;56.63;6.88;;;20.30;80.70;;;;;;5044831;28;20033;-62
2022/07/01 04:43:04;;;;;;;20.02;3.45;;;20.30;80.70;;;;;;5064843;28;20028;-62
2022/07/01 04:45:29;;;;;;;25.45;3.30;;;20.30;80.60;;;;;;5044932;28;20108;-63
2022/07/01 04:47:55;;;;;;;19.80;3.72;;;20.30;80.60;;;;;;5063875;28;21211;-63
2022/07/01 04:50:20;;;;;;;32.85;3.65;;;20.30;80.60;;;;;;5061991;28;20024;-62
2022/07/01 04:52:46;;;;;;;18.80;3.47;;;20.30;80.70;;;;;;5046219;28;20147;-62
2022/07/01 04:55:12;;;;;;;17.05;3.22;;;20.40;80.70;;;;;;5028624;28;20082;-63
2022/07/01 04:57:37;;;;;;;16.65;2.40;;;20.30;80.60;;;;;;5047035;28;20565;-62
2022/07/01 05:00:03;;;;;;;13.40;2.55;;;20.30;80.70;;;;;;5064655;28;20039;-62
2022/07/01 05:02:29;;;;;;;25.17;2.85;;;20.30;80.70;;;;;;5027978;28;20025;-63
2022/07/01 05:04:54;;;;;;;16.85;3.00;;;20.30;80.70;;;;;;5061280;28;20053;-63
2022/07/01 05:07:28;;;;;;;12.40;2.22;;;20.20;80.50;;;;;;5045235;28;20070;-62
2022/07/01 05:09:58;;;;;;;18.48;2.50;;;20.20;80.60;;;;;;5064253;28;20024;-62
2022/07/01 05:12:24;;;;;;;19.35;2.38;;;20.20;80.60;;;;;;5065237;28;20028;-62
2022/07/01 05:14:50;;;;;;;12.02;2.33;;;20.20;80.80;;;;;;5045041;28;20028;-63
2022/07/01 05:17:15;;;;;;;12.95;2.03;;;20.20;80.90;;;;;;5040978;28;20098;-62
2022/07/01 05:22:25;;;;;;;6.68;2.05;;;20.20;81.30;;;;;;5046939;28;20464;-63
2022/07/01 05:24:50;;;;;;;13.70;1.85;;;20.20;81.40;;;;;;5042737;28;20040;-62
2022/07/01 05:27:16;;;;;;;9.50;1.73;;;20.20;81.40;;;;;;5050693;28;20037;-62
2022/07/01 05:29:41;;;;;;;6.88;1.90;;;20.20;81.40;;;;;;5045232;28;20045;-63
2022/07/01 05:32:07;;;;;;;9.95;1.77;;;20.20;81.20;;;;;;5045392;28;20033;-62
2022/07/01 05:34:32;;;;;;;9.52;2.13;;;20.20;81.30;;;;;;5041615;28;20095;-63
2022/07/01 05:36:58;;;;;;;12.18;2.15;;;20.20;81.40;;;;;;5048612;28;20219;-62
2022/07/01 05:39:24;;;;;;;7.32;1.85;;;20.20;81.50;;;;;;5051525;28;20091;-63
2022/07/01 05:41:50;;;;;;;17.95;2.28;;;20.20;81.60;;;;;;5041231;28;20058;-62
2022/07/01 05:44:16;;;;;;;16.70;2.25;;;20.20;81.50;;;;;;5045427;28;20044;-62
2022/07/01 05:46:41;;;;;;;9.18;2.03;;;20.20;81.50;;;;;;5043422;28;20056;-63
2022/07/01 05:49:07;;;;;;;8.65;1.65;;;20.20;81.50;;;;;;5047360;28;20029;-63
2022/07/01 05:51:32;;;;;;;6.50;2.05;;;20.20;81.80;;;;;;5048765;28;20029;-63
2022/07/01 05:53:58;;;;;;;10.23;1.65;;;20.20;81.50;;;;;;5036491;28;20112;-63
2022/07/01 05:56:24;;;;;;;9.25;1.90;;;20.20;81.50;;;;;;5045390;28;20118;-62
2022/07/01 05:58:49;;;;;;;6.15;1.70;;;20.20;81.50;;;;;;5042223;28;20033;-62
2022/07/01 06:01:15;;;;;;;6.70;1.45;;;20.20;81.50;;;;;;5052527;28;20021;-62
2022/07/01 06:03:40;;;;;;;7.40;1.48;;;20.20;81.70;;;;;;5043561;28;20048;-63
2022/07/01 06:06:06;;;;;;;8.25;1.80;;;20.20;81.70;;;;;;5043691;28;20028;-61
2022/07/01 06:08:33;;;;;;;5.30;1.35;;;20.20;81.70;;;;;;5048230;28;20044;-63
2022/07/01 06:10:58;;;;;;;5.07;1.52;;;20.20;81.70;;;;;;5026093;28;20012;-62
2022/07/01 06:13:24;;;;;;;4.35;1.42;;;20.20;81.70;;;;;;5051080;28;20515;-63
2022/07/01 06:15:49;;;;;;;4.15;1.27;;;20.10;81.80;;;;;;5043187;28;20056;-62
2022/07/01 06:18:15;;;;;;;7.25;1.38;;;20.10;82.00;;;;;;5056695;28;20035;-62
2022/07/01 06:20:40;;;;;;;5.57;1.60;;;20.10;82.10;;;;;;5047136;28;20037;-62
2022/07/01 06:23:06;;;;;;;10.65;1.63;;;20.10;82.10;;;;;;5052563;28;20087;-63
2022/07/01 06:25:31;;;;;;;7.93;1.40;;;20.10;82.10;;;;;;5045415;28;20487;-62
2022/07/01 06:27:57;;;;;;;5.95;1.30;;;20.10;82.20;;;;;;5042823;28;20040;-63
2022/07/01 06:30:22;;;;;;;9.95;1.80;;;20.00;82.40;;;;;;5043040;28;20025;-65
2022/07/01 06:32:48;;;;;;;9.25;1.70;;;20.00;83.00;;;;;;5042014;28;20075;-62
2022/07/01 06:35:13;;;;;;;7.68;1.25;;;20.00;83.00;;;;;;5043453;28;20127;-61
2022/07/01 06:37:39;;;;;;;7.53;1.50;;;19.90;82.90;;;;;;5048279;28;20032;-62
2022/07/01 06:40:05;;;;;;;6.60;1.50;;;19.90;82.90;;;;;;5025756;28;20033;-63
2022/07/01 06:42:31;;;;;;;8.13;1.70;;;19.90;83.00;;;;;;5042484;28;20021;-62
2022/07/01 06:44:57;;;;;;;7.18;1.48;;;19.80;83.00;;;;;;5024372;28;20271;-62
2022/07/01 06:47:22;;;;;;;4.28;1.42;;;19.80;83.00;;;;;;5039097;28;20535;-63
2022/07/01 06:49:48;;;;;;;7.35;1.50;;;19.80;83.00;;;;;;5045585;28;20065;-62
2022/07/01 06:52:14;;;;;;;6.07;1.40;;;19.80;83.20;;;;;;5024659;28;20893;-62
2022/07/01 06:54:39;;;;;;;3.08;1.00;;;19.80;83.20;;;;;;5022625;28;20471;-62
2022/07/01 06:57:05;;;;;;;10.05;1.25;;;19.80;83.10;;;;;;5045497;28;20098;-62
2022/07/01 06:59:31;;;;;;;6.97;1.63;;;19.80;83.20;;;;;;5045772;28;20134;-62
2022/07/01 07:01:57;;;;;;;6.13;1.70;;;19.80;83.60;;;;;;5035946;28;20036;-62
2022/07/01 07:04:22;;;;;;;9.10;2.00;;;19.70;83.60;;;;;;5037105;28;20032;-62
2022/07/01 07:06:48;;;;;;;3.53;1.27;;;19.70;83.70;;;;;;5022168;28;20805;-64
2022/07/01 07:09:13;;;;;;;9.63;1.50;;;19.70;83.70;;;;;;5046593;28;20109;-62
2022/07/01 07:11:39;;;;;;;5.80;1.70;;;19.70;83.80;;;;;;5053896;28;20415;-61
2022/07/01 07:14:04;;;;;;;8.55;1.67;;;19.70;84.00;;;;;;5030602;28;20923;-62
2022/07/01 07:16:30;;;;;;;8.75;1.63;;;19.70;83.90;;;;;;5034178;28;20364;-62
2022/07/01 07:18:55;;;;;;;7.03;1.40;;;19.70;83.80;;;;;;5019492;28;20033;-61
2022/07/01 07:21:21;;;;;;;9.98;1.98;;;19.70;83.60;;;;;;5041764;28;20383;-63
2022/07/01 07:23:46;;;;;;;9.57;2.10;;;19.60;83.60;;;;;;5043833;28;20036;-62
2022/07/01 07:26:13;;;;;;;21.15;2.25;;;19.70;83.60;;;;;;5036673;28;20090;-62
2022/07/01 07:28:39;;;;;;;8.45;1.90;;;19.70;83.60;;;;;;5038638;28;20458;-62
2022/07/01 07:31:04;;;;;;;15.65;2.45;;;19.60;83.60;;;;;;5053148;28;20033;-62
2022/07/01 07:33:30;;;;;;;7.88;2.17;;;19.70;83.80;;;;;;5053181;28;20037;-62
2022/07/01 07:35:56;;;;;;;19.25;2.72;;;19.70;83.80;;;;;;5040788;28;20036;-62
2022/07/01 07:38:21;;;;;;;16.00;2.78;;;19.60;83.80;;;;;;5047418;28;20043;-62
2022/07/01 07:40:47;;;;;;;12.73;2.95;;;19.60;84.00;;;;;;5023847;28;20054;-62
2022/07/01 07:43:12;;;;;;;11.43;2.65;;;19.60;84.00;;;;;;5040805;28;20025;-63
2022/07/01 07:45:38;;;;;;;19.60;3.13;;;19.60;84.00;;;;;;5049486;28;20044;-62
2022/07/01 07:48:05;;;;;;;17.98;2.40;;;19.60;84.00;;;;;;5040923;28;20036;-62
2022/07/01 07:50:31;;;;;;;11.52;2.40;;;19.60;83.90;;;;;;5051167;28;20653;-66
2022/07/01 07:52:56;;;;;;;23.08;3.35;;;19.60;84.00;;;;;;5049303;28;20028;-62
2022/07/01 07:55:22;;;;;;;17.88;3.30;;;19.60;84.00;;;;;;5038242;28;20462;-63
2022/07/01 07:57:47;;;;;;;20.85;3.38;;;19.60;84.10;;;;;;5034629;28;20067;-62
2022/07/01 08:00:13;;;;;;;23.05;3.70;;;19.60;84.30;;;;;;5042166;28;20017;-61
2022/07/01 08:02:39;;;;;;;24.67;3.67;;;19.60;84.20;;;;;;5041900;28;20186;-63
2022/07/01 08:05:05;;;;;;;23.08;3.78;;;19.60;84.40;;;;;;5051870;28;20040;-61
2022/07/01 08:07:35;;;;;;;37.10;4.80;;;19.60;84.20;;;;;;5044683;28;20036;-62
2022/07/01 08:10:01;;;;;;;25.40;3.92;;;19.60;84.40;;;;;;5026183;28;20580;-62
2022/07/01 08:12:26;;;;;;;99.50;11.68;;;19.60;84.40;;;;;;5039333;28;20041;-62
2022/07/01 08:14:52;;;;;;;51.92;6.22;;;19.60;84.60;;;;;;5036073;28;20021;-63
2022/07/01 08:17:18;;;;;;;43.58;6.60;;;19.60;84.70;;;;;;5055621;28;20072;-62
2022/07/01 08:19:43;;;;;;;38.63;6.70;;;19.60;84.70;;;;;;5023296;28;20079;-63
2022/07/01 08:22:09;;;;;;;64.00;7.80;;;19.60;84.80;;;;;;5056523;28;20037;-62
2022/07/01 08:24:34;;;;;;;57.25;6.50;;;19.60;85.20;;;;;;5040814;28;20040;-64
2022/07/01 08:27:00;;;;;;;50.15;6.13;;;19.60;85.10;;;;;;5055988;28;20461;-63
2022/07/01 08:29:26;;;;;;;46.63;5.70;;;19.60;85.20;;;;;;5010161;28;20369;-67
2022/07/01 08:31:51;;;;;;;38.72;6.93;;;19.60;85.10;;;;;;5044222;28;20028;-63
2022/07/01 08:34:17;;;;;;;56.22;6.43;;;19.60;85.10;;;;;;5045180;28;20032;-62
2022/07/01 08:36:42;;;;;;;61.33;7.18;;;19.60;85.70;;;;;;5061749;28;20051;-63
2022/07/01 08:39:08;;;;;;;62.90;7.22;;;19.60;85.00;;;;;;5045124;28;20040;-62
2022/07/01 08:41:33;;;;;;;54.47;8.00;;;19.60;84.80;;;;;;5041145;28;20036;-61
2022/07/01 08:43:59;;;;;;;85.63;7.82;;;19.70;84.80;;;;;;5063307;28;20068;-63
2022/07/01 08:46:28;;;;;;;63.67;8.85;;;19.70;84.70;;;;;;5043926;28;20043;-62
2022/07/01 08:48:53;;;;;;;59.30;7.43;;;19.70;84.40;;;;;;5039168;28;20145;-62
2022/07/01 08:51:19;;;;;;;57.53;7.60;;;19.70;84.40;;;;;;5058212;28;20149;-62
2022/07/01 08:53:44;;;;;;;71.38;8.13;;;19.70;84.30;;;;;;5040976;28;20178;-62
2022/07/01 08:58:55;;;;;;;60.05;7.20;;;19.80;84.20;;;;;;5054830;28;20186;-62
2022/07/01 09:01:22;;;;;;;59.38;6.65;;;19.80;84.20;;;;;;5027812;28;20032;-61
2022/07/01 09:03:49;;;;;;;43.90;6.95;;;19.80;84.20;;;;;;5022188;28;20168;-62
2022/07/01 09:06:19;;;;;;;63.65;7.93;;;19.80;84.10;;;;;;5040812;28;20020;-62
2022/07/01 09:08:45;;;;;;;65.25;8.30;;;19.80;84.10;;;;;;5021675;28;20539;-62
2022/07/01 09:11:40;;;;;;;71.82;8.85;;;19.90;84.10;;;;;;5022846;28;20108;-62
2022/07/01 09:14:10;;;;;;;61.95;8.38;;;19.80;84.20;;;;;;5009550;28;20059;-62
2022/07/01 09:16:50;;;;;;;68.82;8.13;;;19.90;84.40;;;;;;5036483;28;20054;-62
2022/07/01 09:19:18;;;;;;;70.90;9.20;;;19.90;84.40;;;;;;5043263;28;20438;-62
2022/07/01 09:21:51;;;;;;;100.60;10.07;;;19.80;84.50;;;;;;5042880;28;20477;-62
2022/07/01 09:24:25;;;;;;;115.63;10.82;;;19.80;84.50;;;;;;5045189;28;20130;-62
2022/07/01 09:26:55;;;;;;;89.80;10.63;;;19.90;84.70;;;;;;5055346;28;20021;-62
2022/07/01 09:29:29;;;;;;;149.30;14.27;;;19.90;84.60;;;;;;5036993;28;20052;-61
2022/07/01 09:31:54;;;;;;;106.00;13.13;;;19.90;85.00;;;;;;5026573;28;20388;-62
2022/07/01 09:34:22;;;;;;;114.18;11.90;;;19.90;85.20;;;;;;5036234;28;20031;-62
2022/07/01 09:36:55;;;;;;;99.95;12.68;;;19.90;85.10;;;;;;5032236;28;20093;-62
2022/07/01 09:39:21;;;;;;;105.82;12.68;;;19.90;85.20;;;;;;5038229;28;20441;-62
2022/07/01 09:41:46;;;;;;;86.55;11.38;;;19.90;85.40;;;;;;5022041;28;20041;-62
2022/07/01 09:44:12;;;;;;;98.53;11.95;;;19.90;85.90;;;;;;5048565;28;20040;-62
2022/07/01 09:46:37;;;;;;;89.93;10.30;;;19.90;85.10;;;;;;5041076;28;20134;-61
2022/07/01 09:49:03;;;;;;;97.00;9.90;;;19.90;85.20;;;;;;5049065;28;20083;-61
2022/07/01 09:51:30;;;;;;;73.00;11.20;;;20.00;84.70;;;;;;5029038;28;20043;-61
2022/07/01 09:53:56;;;;;;;81.95;10.77;;;20.00;84.70;;;;;;5037448;28;20059;-61
2022/07/01 09:56:23;;;;;;;75.45;10.10;;;20.00;84.60;;;;;;5035995;28;20013;-61
2022/07/01 09:58:48;;;;;;;86.20;10.70;;;20.00;84.30;;;;;;5035378;28;20017;-61
2022/07/01 10:01:15;;;;;;;86.45;10.27;;;20.10;84.20;;;;;;5030676;28;20405;-60
2022/07/01 10:03:40;;;;;;;74.95;9.65;;;20.20;84.00;;;;;;5050433;28;20079;-62
2022/07/01 10:06:06;;;;;;;65.82;9.52;;;20.10;83.80;;;;;;5038880;28;20433;-61
2022/07/01 10:08:50;;;;;;;77.03;10.15;;;20.20;83.70;;;;;;5051059;28;20031;-61
2022/07/01 10:11:22;;;;;;;76.20;9.43;;;20.20;83.80;;;;;;5044653;28;20031;-60
2022/07/01 10:13:48;;;;;;;170.00;19.13;;;20.20;84.00;;;;;;5042529;28;20020;-61
2022/07/01 10:16:14;;;;;;;87.32;11.57;;;20.20;83.80;;;;;;5029432;28;20393;-61
2022/07/01 10:18:39;;;;;;;77.00;10.10;;;20.20;83.90;;;;;;5008687;28;20091;-60
2022/07/01 10:21:05;;;;;;;77.03;11.38;;;20.20;83.80;;;;;;5011319;28;20032;-61
2022/07/01 10:23:39;;;;;;;99.13;12.00;;;20.30;84.00;;;;;;5032487;28;20064;-61
2022/07/01 10:26:05;;;;;;;64.35;9.18;;;20.30;83.80;;;;;;5008685;28;20081;-61
2022/07/01 10:28:43;;;;;;;55.25;8.65;;;20.30;83.60;;;;;;5039751;28;20052;-61
2022/07/01 10:31:18;;;;;;;96.05;10.65;;;20.30;83.30;;;;;;5034650;28;20041;-62
2022/07/01 10:33:48;;;;;;;98.20;10.38;;;20.40;83.30;;;;;;5036865;28;20492;-61
2022/07/01 10:36:18;;;;;;;87.70;11.07;;;20.40;83.50;;;;;;5049171;28;20060;-61
2022/07/01 10:39:13;;;;;;;96.22;12.45;;;20.40;83.40;;;;;;5027848;28;20028;-61
2022/07/01 10:41:52;;;;;;;66.60;8.30;;;20.40;83.70;;;;;;5043665;28;20091;-62
2022/07/01 10:44:17;;;;;;;78.78;10.18;;;20.40;83.30;;;;;;5036689;28;20448;-61
2022/07/01 10:46:47;;;;;;;109.22;10.70;;;20.50;82.80;;;;;;5022256;28;20163;-61
2022/07/01 10:49:13;;;;;;;85.38;10.32;;;20.60;83.30;;;;;;5045861;28;20032;-60
2022/07/01 10:51:43;;;;;;;69.70;8.70;;;20.60;83.30;;;;;;5028528;28;20101;-61
2022/07/01 10:54:08;;;;;;;62.20;8.70;;;20.60;83.00;;;;;;5042470;28;20033;-61
2022/07/01 10:56:40;;;;;;;80.75;10.52;;;20.70;82.80;;;;;;5032532;28;20129;-61
2022/07/01 10:59:05;;;;;;;70.80;8.55;;;20.70;82.50;;;;;;5015883;28;20691;-61
2022/07/01 11:01:31;;;;;;;68.63;9.32;;;20.80;82.40;;;;;;5032962;28;20470;-61
2022/07/01 11:03:56;;;;;;;62.95;9.00;;;20.80;82.20;;;;;;5049358;28;20154;-61
2022/07/01 11:06:22;;;;;;;79.38;10.70;;;20.80;81.90;;;;;;5016907;28;20056;-61
2022/07/01 11:08:51;;;;;;;71.93;9.30;;;20.90;82.10;;;;;;5033037;28;20524;-60
2022/07/01 11:11:19;;;;;;;97.10;10.40;;;20.90;81.80;;;;;;5040853;28;20129;-61
2022/07/01 11:13:45;;;;;;;71.40;10.68;;;20.90;81.80;;;;;;5046780;28;20114;-61
2022/07/01 11:16:10;;;;;;;113.70;12.43;;;21.00;81.90;;;;;;5029212;28;20101;-61
2022/07/01 11:18:36;;;;;;;84.28;11.70;;;21.00;81.70;;;;;;5029008;28;20131;-62
2022/07/01 11:21:06;;;;;;;87.25;10.85;;;21.00;81.80;;;;;;5048848;28;20036;-61
2022/07/01 11:23:32;;;;;;;105.38;11.65;;;21.00;81.80;;;;;;5036613;28;20021;-61
2022/07/01 11:25:57;;;;;;;91.10;11.50;;;21.10;81.80;;;;;;5056435;28;20060;-61
2022/07/01 11:28:23;;;;;;;90.40;11.80;;;21.10;81.80;;;;;;5056440;28;21287;-62
2022/07/01 11:30:48;;;;;;;76.68;10.15;;;21.20;81.80;;;;;;5036840;28;20138;-62
2022/07/01 11:33:13;;;;;;;79.75;8.93;;;21.20;81.40;;;;;;5024135;28;20545;-61
2022/07/01 11:41:17;;;;;;;96.50;10.90;;;21.30;81.00;;;;;;5039198;28;20055;-61
2022/07/01 11:43:42;;;;;;;91.05;10.77;;;21.30;81.00;;;;;;5034329;28;20043;-62
2022/07/01 11:46:08;;;;;;;90.22;10.27;;;21.30;80.90;;;;;;5053952;28;20016;-62
2022/07/01 11:48:37;;;;;;;92.32;11.32;;;21.40;80.80;;;;;;5036778;28;20024;-62
2022/07/01 11:51:15;;;;;;;79.35;11.13;;;21.40;80.60;;;;;;5038688;28;20453;-62
2022/07/01 11:53:42;;;;;;;69.75;9.38;;;21.40;80.40;;;;;;5060724;28;20265;-61
2022/07/01 11:56:07;;;;;;;77.22;10.15;;;21.50;80.00;;;;;;5038797;28;20017;-61
2022/07/01 11:58:50;;;;;;;54.78;8.10;;;21.50;79.90;;;;;;5021202;28;20024;-61
2022/07/01 12:01:29;;;;;;;68.03;10.10;;;21.60;79.30;;;;;;5039772;28;20404;-60
2022/07/01 12:03:57;;;;;;;70.18;8.68;;;21.60;78.90;;;;;;5031566;28;20032;-61
2022/07/01 12:06:23;;;;;;;59.95;9.65;;;21.60;79.20;;;;;;5037524;28;20033;-61
2022/07/01 12:08:49;;;;;;;65.28;8.80;;;21.60;78.80;;;;;;5036680;28;20078;-63
2022/07/01 12:11:15;;;;;;;77.15;9.40;;;21.70;78.50;;;;;;5034971;28;20407;-61
2022/07/01 12:13:41;;;;;;;65.53;9.75;;;21.80;78.90;;;;;;5006735;28;20044;-61
2022/07/01 12:16:10;;;;;;;77.47;10.55;;;21.80;78.00;;;;;;5019929;28;20580;-62
2022/07/01 12:18:36;;;;;;;59.90;8.02;;;21.90;77.70;;;;;;5003003;28;20361;-62
2022/07/01 12:21:01;;;;;;;64.30;8.13;;;22.00;77.30;;;;;;5036541;28;20043;-61
2022/07/01 12:23:27;;;;;;;50.95;8.05;;;22.10;77.20;;;;;;5021239;28;20131;-61
2022/07/01 12:25:54;;;;;;;61.85;8.82;;;22.10;76.90;;;;;;5016394;28;20053;-61
2022/07/01 12:28:27;;;;;;;52.35;7.43;;;22.20;76.50;;;;;;5035515;28;20361;-60
2022/07/01 12:31:19;;;;;;;66.55;7.93;;;22.20;76.60;;;;;;5015348;28;20109;-61
2022/07/01 12:33:49;;;;;;;60.63;8.40;;;22.30;76.30;;;;;;5010736;28;20067;-64
2022/07/01 12:36:15;;;;;;;57.30;7.68;;;22.30;75.70;;;;;;5016335;28;20669;-62
2022/07/01 12:38:41;;;;;;;77.22;8.48;;;22.30;75.50;;;;;;5032118;28;20206;-61
2022/07/01 12:41:35;;;;;;;79.47;9.77;;;22.40;75.40;;;;;;5012909;28;20149;-61
2022/07/01 12:44:20;;;;;;;69.15;8.02;;;22.40;75.10;;;;;;5031734;28;20516;-60
2022/07/01 12:46:46;;;;;;;57.63;7.85;;;22.40;75.10;;;;;;5040520;28;20124;-62
2022/07/01 12:49:19;;;;;;;51.50;7.70;;;22.50;75.20;;;;;;5022537;28;20178;-62
2022/07/01 12:51:45;;;;;;;52.05;7.13;;;22.50;75.00;;;;;;5041402;28;20029;-61
2022/07/01 12:54:30;;;;;;;59.30;7.57;;;22.60;75.10;;;;;;5036085;28;20453;-61